Edmonton, Canada
Current Conditions -  °F | °C
As of 4:00 PM on Thursday 18 Dec 2014 (Local Time) from CYXD Reporting Station
Clear Clear  
Wind Chill: 23°   Ceiling: Unl
Heat Index: 23°   Visibility: 7mi
Dew Point: 16°   Wind: 3mph
Humidity: 74%   Direction: 200°SSW
Pressure: 29.83"   Gusts: NA
Location:  53.55°N, 113.49°W
Report Text: CYXD 182300Z AUTO 20003KT 7SM CLR M05/M09 A2983 RMK SLP141
Loading
Personal Weather Stations






























Interactive Weather Map New forecast layout! Learn more

10-Day Weather Forecast

Advertisements
Track Severe Weather on mobile